• Join FlightAware (Why Join?)
  • Login
  • US Flag 
06:45AM EDT


 

Airport Tracker/Info


-or-


 

Live Flight TrackerFlight Track Log ✈ N1926A ✈ 01-May-2013 ✈ 41A - KMGM

Flight Track Log - Related Links

Times and Time Zones

All times are in EDT time to prevent confusion due to time zone crossing. See the N1926A flight status page for this flight to view local times or setup timezone preferences in your user account.

Time Position Orientation Groundspeed Altitude Reporting Facility
EDT Latitude Longitude Course Direction KTS MPH feet Rate Location/Type
04:53PM 32.3969 -86.1215 246° West  Level FlightAware Approximate
04:54PM 32.3804 -86.1644 245° Southwest  Level FlightAware Approximate
04:55PM 32.3667 -86.2079 270° West  Level FlightAware Approximate
04:56PM 32.3479 -86.2479 235° Southwest  Level FlightAware Approximate
04:57PM 32.3249 -86.2863 235° Southwest  Level FlightAware Approximate
04:58PM 32.3108 -86.3294 257° West  Level FlightAware Approximate
04:59PM 32.3016 -86.3751 257° West  Level FlightAware Approximate
05:00PM 32.3000 -86.3833 257° West  Level FlightAware Approximate
05:01PM 32.3006 -86.3940 257° West  Level Estimated
05:02PM 32.3006 -86.3940 257° West  Level Estimated
05:03PM 32.3006 -86.3940 257° West  Level Estimated
05:04PM 32.3006 -86.3940 257° West  Level Estimated
05:05PM 32.3006 -86.3940 257° West  Level Estimated
05:06PM 32.3006 -86.3940 257° West  Level Estimated
05:07PM 32.3006 -86.3940 257° West  Level Estimated
05:08PM 32.3006 -86.3940 257° West  Level Estimated
05:09PM 32.3006 -86.3940 257° West  Level Estimated
05:10PM 32.3006 -86.3940 257° West  Level Estimated
05:11PM 32.3006 -86.3940 257° West  Level Estimated
05:12PM 32.3006 -86.3940 257° West  Level Estimated
05:13PM 32.3006 -86.3940 257° West  Level Estimated
05:14PM 32.3006 -86.3940 257° West  Level Estimated
05:15PM 32.3006 -86.3940 257° West  Level Estimated